sensor_id;sensor_type;location;lat;lon;timestamp;pressure;altitude;pressure_sealevel;temperature;humidity
79150;BME280;68563;45.644;13.782;2024-01-15T00:01:11;100092.13;;;6.98;79.72
79150;BME280;68563;45.644;13.782;2024-01-15T00:03:36;100079.28;;;6.94;80.06
79150;BME280;68563;45.644;13.782;2024-01-15T00:06:02;100080.97;;;6.98;80.18
79150;BME280;68563;45.644;13.782;2024-01-15T00:08:27;100070.72;;;6.92;80.04
79150;BME280;68563;45.644;13.782;2024-01-15T00:10:53;100075.06;;;6.86;80.48
79150;BME280;68563;45.644;13.782;2024-01-15T00:13:18;100075.06;;;6.86;80.44
79150;BME280;68563;45.644;13.782;2024-01-15T00:15:44;100071.63;;;6.88;80.43
79150;BME280;68563;45.644;13.782;2024-01-15T00:18:09;100060.47;;;6.85;80.44
79150;BME280;68563;45.644;13.782;2024-01-15T00:20:34;100064.75;;;6.86;80.80
79150;BME280;68563;45.644;13.782;2024-01-15T00:23:00;100058.72;;;6.89;80.78
79150;BME280;68563;45.644;13.782;2024-01-15T00:25:25;100053.56;;;6.91;80.52
79150;BME280;68563;45.644;13.782;2024-01-15T00:27:50;100050.13;;;6.95;80.39
79150;BME280;68563;45.644;13.782;2024-01-15T00:30:16;100034.66;;;6.95;80.24
79150;BME280;68563;45.644;13.782;2024-01-15T00:32:41;100032.97;;;6.94;80.41
79150;BME280;68563;45.644;13.782;2024-01-15T00:35:07;100025.22;;;6.92;80.62
79150;BME280;68563;45.644;13.782;2024-01-15T00:37:32;100020.91;;;6.97;80.73
79150;BME280;68563;45.644;13.782;2024-01-15T00:39:58;100025.19;;;6.97;80.87
79150;BME280;68563;45.644;13.782;2024-01-15T00:42:23;100016.56;;;7.02;80.89
79150;BME280;68563;45.644;13.782;2024-01-15T00:44:48;100015.75;;;6.99;80.28
79150;BME280;68563;45.644;13.782;2024-01-15T00:47:14;100015.75;;;6.99;80.18
79150;BME280;68563;45.644;13.782;2024-01-15T00:49:39;100019.19;;;6.98;80.43
79150;BME280;68563;45.644;13.782;2024-01-15T00:52:05;100014.03;;;6.98;80.24
79150;BME280;68563;45.644;13.782;2024-01-15T00:54:30;100014.91;;;6.98;80.25
79150;BME280;68563;45.644;13.782;2024-01-15T00:56:55;99996.97;;;6.89;79.86
79150;BME280;68563;45.644;13.782;2024-01-15T00:59:21;99996.88;;;6.97;80.09
79150;BME280;68563;45.644;13.782;2024-01-15T01:01:46;99986.56;;;6.97;80.19
79150;BME280;68563;45.644;13.782;2024-01-15T01:04:12;99971.19;;;6.94;80.11
79150;BME280;68563;45.644;13.782;2024-01-15T01:06:38;99982.34;;;6.93;80.27
79150;BME280;68563;45.644;13.782;2024-01-15T01:09:03;99984.94;;;6.91;80.48
79150;BME280;68563;45.644;13.782;2024-01-15T01:11:29;99987.53;;;6.86;80.40
79150;BME280;68563;45.644;13.782;2024-01-15T01:13:54;99984.06;;;6.91;80.38
79150;BME280;68563;45.644;13.782;2024-01-15T01:16:21;99993.53;;;6.90;80.35
79150;BME280;68563;45.644;13.782;2024-01-15T01:18:47;99981.50;;;6.91;80.32
79150;BME280;68563;45.644;13.782;2024-01-15T01:21:12;99975.47;;;6.92;80.09
79150;BME280;68563;45.644;13.782;2024-01-15T01:23:37;99977.16;;;6.96;79.90
79150;BME280;68563;45.644;13.782;2024-01-15T01:26:03;99976.31;;;6.94;79.75
79150;BME280;68563;45.644;13.782;2024-01-15T01:28:28;99974.63;;;6.93;79.58
79150;BME280;68563;45.644;13.782;2024-01-15T01:30:54;99969.50;;;6.91;79.35
79150;BME280;68563;45.644;13.782;2024-01-15T01:33:19;99960.03;;;6.92;79.40
79150;BME280;68563;45.644;13.782;2024-01-15T01:35:45;99950.53;;;6.97;79.64
79150;BME280;68563;45.644;13.782;2024-01-15T01:38:12;99933.38;;;6.96;79.35
79150;BME280;68563;45.644;13.782;2024-01-15T01:40:37;99936.78;;;7.01;79.57
79150;BME280;68563;45.644;13.782;2024-01-15T01:43:04;99934.22;;;7.01;79.66
79150;BME280;68563;45.644;13.782;2024-01-15T01:45:30;99926.50;;;7.01;79.96
79150;BME280;68563;45.644;13.782;2024-01-15T01:47:55;99924.72;;;7.03;80.02
79150;BME280;68563;45.644;13.782;2024-01-15T01:50:21;99911.03;;;7.01;80.23
79150;BME280;68563;45.644;13.782;2024-01-15T01:52:47;99911.88;;;7.01;80.47
79150;BME280;68563;45.644;13.782;2024-01-15T01:55:12;99904.13;;;7.06;80.32
79150;BME280;68563;45.644;13.782;2024-01-15T01:57:38;99881.88;;;6.99;80.51
79150;BME280;68563;45.644;13.782;2024-01-15T02:00:04;99887.88;;;7.01;80.98
79150;BME280;68563;45.644;13.782;2024-01-15T02:02:32;99898.13;;;7.06;80.79
79150;BME280;68563;45.644;13.782;2024-01-15T02:04:57;99887.84;;;7.06;80.80
79150;BME280;68563;45.644;13.782;2024-01-15T02:07:22;99886.13;;;7.05;80.77
79150;BME280;68563;45.644;13.782;2024-01-15T02:09:49;99890.38;;;7.07;80.77
79150;BME280;68563;45.644;13.782;2024-01-15T02:12:15;99892.09;;;7.07;80.40
79150;BME280;68563;45.644;13.782;2024-01-15T02:14:40;99887.81;;;7.04;80.36
79150;BME280;68563;45.644;13.782;2024-01-15T02:17:06;99895.53;;;7.07;80.54
79150;BME280;68563;45.644;13.782;2024-01-15T02:19:31;99892.09;;;7.07;80.57
79150;BME280;68563;45.644;13.782;2024-01-15T02:21:57;99881.84;;;7.03;80.73
79150;BME280;68563;45.644;13.782;2024-01-15T02:24:22;99879.25;;;7.03;80.96
79150;BME280;68563;45.644;13.782;2024-01-15T02:26:48;99879.25;;;7.03;81.03
79150;BME280;68563;45.644;13.782;2024-01-15T02:29:14;99872.41;;;7.02;80.96
79150;BME280;68563;45.644;13.782;2024-01-15T02:31:40;99861.28;;;7.02;80.87
79150;BME280;68563;45.644;13.782;2024-01-15T02:34:05;99868.09;;;7.03;80.92
79150;BME280;68563;45.644;13.782;2024-01-15T02:36:31;99857.84;;;7.00;80.71
79150;BME280;68563;45.644;13.782;2024-01-15T02:38:56;99856.16;;;6.96;80.98
79150;BME280;68563;45.644;13.782;2024-01-15T02:41:22;99853.56;;;6.99;81.07
79150;BME280;68563;45.644;13.782;2024-01-15T02:43:47;99846.72;;;6.98;81.27
79150;BME280;68563;45.644;13.782;2024-01-15T02:46:13;99845.00;;;6.98;81.46
79150;BME280;68563;45.644;13.782;2024-01-15T02:48:38;99849.25;;;7.01;81.36
79150;BME280;68563;45.644;13.782;2024-01-15T02:51:03;99842.34;;;7.03;81.37
79150;BME280;68563;45.644;13.782;2024-01-15T02:53:29;99829.59;;;6.92;81.67
79150;BME280;68563;45.644;13.782;2024-01-15T02:55:54;99832.97;;;6.99;82.18
79150;BME280;68563;45.644;13.782;2024-01-15T02:58:21;99828.66;;;6.99;81.71
79150;BME280;68563;45.644;13.782;2024-01-15T03:00:47;99828.66;;;7.01;81.75
79150;BME280;68563;45.644;13.782;2024-01-15T03:03:12;99829.53;;;7.00;81.50
79150;BME280;68563;45.644;13.782;2024-01-15T03:05:38;99814.94;;;7.00;81.45
79150;BME280;68563;45.644;13.782;2024-01-15T03:08:03;99814.94;;;7.02;81.51
79150;BME280;68563;45.644;13.782;2024-01-15T03:10:29;99817.50;;;7.02;81.64
79150;BME280;68563;45.644;13.782;2024-01-15T03:12:54;99818.38;;;7.01;81.54
79150;BME280;68563;45.644;13.782;2024-01-15T03:15:20;99808.03;;;7.04;81.41
79150;BME280;68563;45.644;13.782;2024-01-15T03:17:45;99813.16;;;7.04;81.47
79150;BME280;68563;45.644;13.782;2024-01-15T03:20:11;99802.88;;;7.04;81.50
79150;BME280;68563;45.644;13.782;2024-01-15T03:22:36;99797.72;;;7.06;81.35
79150;BME280;68563;45.644;13.782;2024-01-15T03:25:03;99790.00;;;7.06;81.73
79150;BME280;68563;45.644;13.782;2024-01-15T03:27:28;99790.00;;;7.04;81.74
79150;BME280;68563;45.644;13.782;2024-01-15T03:29:54;99789.13;;;7.05;81.64
79150;BME280;68563;45.644;13.782;2024-01-15T03:32:19;99790.84;;;7.06;81.42
79150;BME280;68563;45.644;13.782;2024-01-15T03:34:45;99782.28;;;7.04;81.46
79150;BME280;68563;45.644;13.782;2024-01-15T03:37:12;99783.97;;;7.08;81.35
79150;BME280;68563;45.644;13.782;2024-01-15T03:39:37;99777.94;;;7.09;81.69
79150;BME280;68563;45.644;13.782;2024-01-15T03:42:03;99771.91;;;7.09;81.30
79150;BME280;68563;45.644;13.782;2024-01-15T03:44:29;99772.75;;;7.12;81.39
79150;BME280;68563;45.644;13.782;2024-01-15T03:46:54;99772.75;;;7.11;81.64
79150;BME280;68563;45.644;13.782;2024-01-15T03:49:19;99764.16;;;7.12;81.85
79150;BME280;68563;45.644;13.782;2024-01-15T03:51:45;99741.88;;;7.11;81.94
79150;BME280;68563;45.644;13.782;2024-01-15T03:54:10;99739.25;;;7.15;82.04
79150;BME280;68563;45.644;13.782;2024-01-15T03:56:36;99739.38;;;7.03;82.39
79150;BME280;68563;45.644;13.782;2024-01-15T03:59:01;99735.94;;;7.04;82.54
79150;BME280;68563;45.644;13.782;2024-01-15T04:01:26;99740.25;;;7.03;82.43
79150;BME280;68563;45.644;13.782;2024-01-15T04:03:52;99735.94;;;7.04;82.28
79150;BME280;68563;45.644;13.782;2024-01-15T04:06:17;99731.63;;;7.06;82.11
79150;BME280;68563;45.644;13.782;2024-01-15T04:08:42;99724.81;;;7.03;81.94
79150;BME280;68563;45.644;13.782;2024-01-15T04:11:08;99722.19;;;7.05;82.02
79150;BME280;68563;45.644;13.782;2024-01-15T04:13:33;99711.03;;;7.06;81.43
79150;BME280;68563;45.644;13.782;2024-01-15T04:16:00;99707.53;;;7.10;81.67
79150;BME280;68563;45.644;13.782;2024-01-15T04:18:25;99701.59;;;7.05;81.55
79150;BME280;68563;45.644;13.782;2024-01-15T04:20:51;99718.72;;;7.09;81.50
79150;BME280;68563;45.644;13.782;2024-01-15T04:23:16;99717.03;;;7.08;81.44
79150;BME280;68563;45.644;13.782;2024-01-15T04:25:42;99704.09;;;7.11;81.60
79150;BME280;68563;45.644;13.782;2024-01-15T04:28:09;99693.78;;;7.11;81.62
79150;BME280;68563;45.644;13.782;2024-01-15T04:30:34;99689.47;;;7.13;81.45
79150;BME280;68563;45.644;13.782;2024-01-15T04:33:00;99698.06;;;7.12;81.53
79150;BME280;68563;45.644;13.782;2024-01-15T04:35:26;99692.91;;;7.12;81.24
79150;BME280;68563;45.644;13.782;2024-01-15T04:37:51;99699.84;;;7.09;81.32
79150;BME280;68563;45.644;13.782;2024-01-15T04:40:17;99703.25;;;7.11;81.30
79150;BME280;68563;45.644;13.782;2024-01-15T04:42:42;99704.94;;;7.10;81.47
79150;BME280;68563;45.644;13.782;2024-01-15T04:45:08;99694.69;;;7.09;81.59
79150;BME280;68563;45.644;13.782;2024-01-15T04:47:33;99710.09;;;7.12;81.45
79150;BME280;68563;45.644;13.782;2024-01-15T04:49:59;99697.22;;;7.10;81.43
79150;BME280;68563;45.644;13.782;2024-01-15T04:52:24;99692.06;;;7.13;81.61
79150;BME280;68563;45.644;13.782;2024-01-15T04:54:49;99682.69;;;7.09;82.05
79150;BME280;68563;45.644;13.782;2024-01-15T04:57:15;99681.78;;;7.10;82.08
79150;BME280;68563;45.644;13.782;2024-01-15T04:59:40;99680.97;;;7.08;82.01
79150;BME280;68563;45.644;13.782;2024-01-15T05:02:06;99683.53;;;7.10;81.89
79150;BME280;68563;45.644;13.782;2024-01-15T05:04:31;99687.78;;;7.12;81.58
79150;BME280;68563;45.644;13.782;2024-01-15T05:06:58;99686.06;;;7.11;81.09
79150;BME280;68563;45.644;13.782;2024-01-15T05:09:23;99681.75;;;7.13;80.94
79150;BME280;68563;45.644;13.782;2024-01-15T05:11:49;99675.81;;;7.08;81.40
79150;BME280;68563;45.644;13.782;2024-01-15T05:14:14;99680.00;;;7.14;81.27
79150;BME280;68563;45.644;13.782;2024-01-15T05:16:46;99679.19;;;7.13;81.67
79150;BME280;68563;45.644;13.782;2024-01-15T05:19:11;99680.91;;;7.11;81.82
79150;BME280;68563;45.644;13.782;2024-01-15T05:21:37;99680.97;;;7.08;81.55
79150;BME280;68563;45.644;13.782;2024-01-15T05:24:02;99688.59;;;7.14;81.39
79150;BME280;68563;45.644;13.782;2024-01-15T05:26:28;99689.41;;;7.16;81.45
79150;BME280;68563;45.644;13.782;2024-01-15T05:28:53;99691.16;;;7.16;81.97
79150;BME280;68563;45.644;13.782;2024-01-15T05:31:18;99693.72;;;7.16;82.13
79150;BME280;68563;45.644;13.782;2024-01-15T05:33:44;99688.56;;;7.16;82.06
79150;BME280;68563;45.644;13.782;2024-01-15T05:36:09;99681.78;;;7.10;82.02
79150;BME280;68563;45.644;13.782;2024-01-15T05:38:34;99682.59;;;7.15;82.09
79150;BME280;68563;45.644;13.782;2024-01-15T05:41:00;99679.13;;;7.16;81.96
79150;BME280;68563;45.644;13.782;2024-01-15T05:43:25;99678.31;;;7.14;81.74
79150;BME280;68563;45.644;13.782;2024-01-15T05:45:51;99680.00;;;7.14;81.77
79150;BME280;68563;45.644;13.782;2024-01-15T05:48:16;99677.34;;;7.20;81.81
79150;BME280;68563;45.644;13.782;2024-01-15T05:50:41;99682.53;;;7.18;82.08
79150;BME280;68563;45.644;13.782;2024-01-15T05:53:07;99688.53;;;7.17;81.88
79150;BME280;68563;45.644;13.782;2024-01-15T05:55:33;99688.50;;;7.21;81.89
79150;BME280;68563;45.644;13.782;2024-01-15T05:57:58;99673.97;;;7.16;81.88
79150;BME280;68563;45.644;13.782;2024-01-15T06:00:24;99672.22;;;7.18;82.14
79150;BME280;68563;45.644;13.782;2024-01-15T06:02:49;99674.81;;;7.18;82.48
79150;BME280;68563;45.644;13.782;2024-01-15T06:05:14;99673.91;;;7.23;82.67
79150;BME280;68563;45.644;13.782;2024-01-15T06:07:41;99656.84;;;7.14;82.29
79150;BME280;68563;45.644;13.782;2024-01-15T06:10:06;99658.41;;;7.24;82.09
79150;BME280;68563;45.644;13.782;2024-01-15T06:12:32;99651.53;;;7.25;82.23
79150;BME280;68563;45.644;13.782;2024-01-15T06:14:59;99641.22;;;7.25;82.25
79150;BME280;68563;45.644;13.782;2024-01-15T06:17:24;99649.78;;;7.27;82.13
79150;BME280;68563;45.644;13.782;2024-01-15T06:19:49;99647.19;;;7.30;81.71
79150;BME280;68563;45.644;13.782;2024-01-15T06:22:15;99642.91;;;7.29;81.77
79150;BME280;68563;45.644;13.782;2024-01-15T06:24:41;99646.25;;;7.34;81.87
79150;BME280;68563;45.644;13.782;2024-01-15T06:27:06;99641.97;;;7.33;81.77
79150;BME280;68563;45.644;13.782;2024-01-15T06:29:31;99642.00;;;7.31;81.59
79150;BME280;68563;45.644;13.782;2024-01-15T06:31:57;99643.78;;;7.28;81.68
79150;BME280;68563;45.644;13.782;2024-01-15T06:34:22;99636.16;;;7.22;81.58
79150;BME280;68563;45.644;13.782;2024-01-15T06:36:48;99635.22;;;7.26;81.41
79150;BME280;68563;45.644;13.782;2024-01-15T06:39:13;99636.97;;;7.22;81.33
79150;BME280;68563;45.644;13.782;2024-01-15T06:41:38;99639.72;;;7.11;81.68
79150;BME280;68563;45.644;13.782;2024-01-15T06:44:11;99633.78;;;7.08;81.82
79150;BME280;68563;45.644;13.782;2024-01-15T06:46:38;99636.28;;;7.12;81.85
79150;BME280;68563;45.644;13.782;2024-01-15T06:49:06;99637.19;;;7.10;81.79
79150;BME280;68563;45.644;13.782;2024-01-15T06:51:32;99641.41;;;7.14;81.45
79150;BME280;68563;45.644;13.782;2024-01-15T06:53:57;99635.44;;;7.12;81.60
79150;BME280;68563;45.644;13.782;2024-01-15T06:56:22;99640.50;;;7.16;81.45
79150;BME280;68563;45.644;13.782;2024-01-15T06:58:48;99635.31;;;7.19;81.31
79150;BME280;68563;45.644;13.782;2024-01-15T07:01:13;99645.56;;;7.23;81.33
79150;BME280;68563;45.644;13.782;2024-01-15T07:03:39;99631.06;;;7.17;80.95
79150;BME280;68563;45.644;13.782;2024-01-15T07:06:04;99641.22;;;7.25;80.80
79150;BME280;68563;45.644;13.782;2024-01-15T07:08:30;99639.50;;;7.27;80.66
79150;BME280;68563;45.644;13.782;2024-01-15T07:10:55;99648.91;;;7.28;80.50
79150;BME280;68563;45.644;13.782;2024-01-15T07:13:20;99649.75;;;7.30;80.57
79150;BME280;68563;45.644;13.782;2024-01-15T07:15:46;99645.44;;;7.30;80.90
79150;BME280;68563;45.644;13.782;2024-01-15T07:18:11;99644.59;;;7.30;80.99
79150;BME280;68563;45.644;13.782;2024-01-15T07:20:37;99627.56;;;7.23;81.04
79150;BME280;68563;45.644;13.782;2024-01-15T07:23:02;99640.28;;;7.30;80.80
79150;BME280;68563;45.644;13.782;2024-01-15T07:25:29;99633.47;;;7.28;80.75
79150;BME280;68563;45.644;13.782;2024-01-15T07:27:54;99650.53;;;7.35;80.41
79150;BME280;68563;45.644;13.782;2024-01-15T07:30:20;99651.41;;;7.34;80.43
79150;BME280;68563;45.644;13.782;2024-01-15T07:32:47;99649.66;;;7.36;80.45
79150;BME280;68563;45.644;13.782;2024-01-15T07:35:14;99649.59;;;7.39;80.30
79150;BME280;68563;45.644;13.782;2024-01-15T07:37:39;99652.16;;;7.39;80.45
79150;BME280;68563;45.644;13.782;2024-01-15T07:40:05;99654.75;;;7.39;80.44
79150;BME280;68563;45.644;13.782;2024-01-15T07:42:33;99646.22;;;7.37;80.33
79150;BME280;68563;45.644;13.782;2024-01-15T07:44:59;99652.13;;;7.41;80.45
79150;BME280;68563;45.644;13.782;2024-01-15T07:47:25;99654.69;;;7.41;80.71
79150;BME280;68563;45.644;13.782;2024-01-15T07:49:50;99658.16;;;7.41;81.04
79150;BME280;68563;45.644;13.782;2024-01-15T07:52:15;99661.56;;;7.43;80.62
79150;BME280;68563;45.644;13.782;2024-01-15T07:54:41;99654.63;;;7.45;80.48
79150;BME280;68563;45.644;13.782;2024-01-15T07:57:06;99646.03;;;7.46;80.47
79150;BME280;68563;45.644;13.782;2024-01-15T07:59:32;99646.88;;;7.48;80.73
79150;BME280;68563;45.644;13.782;2024-01-15T08:01:59;99646.84;;;7.50;80.50
79150;BME280;68563;45.644;13.782;2024-01-15T08:04:24;99645.09;;;7.52;80.64
79150;BME280;68563;45.644;13.782;2024-01-15T08:06:50;99651.03;;;7.56;80.58
79150;BME280;68563;45.644;13.782;2024-01-15T08:09:15;99645.88;;;7.56;80.21
79150;BME280;68563;45.644;13.782;2024-01-15T08:11:41;99648.41;;;7.60;79.78
79150;BME280;68563;45.644;13.782;2024-01-15T08:14:07;99632.19;;;7.54;79.58
79150;BME280;68563;45.644;13.782;2024-01-15T08:16:32;99658.59;;;7.66;79.47
79150;BME280;68563;45.644;13.782;2024-01-15T08:18:58;99645.72;;;7.66;79.23
79150;BME280;68563;45.644;13.782;2024-01-15T08:21:24;99649.09;;;7.69;78.89
79150;BME280;68563;45.644;13.782;2024-01-15T08:23:49;99654.16;;;7.73;78.79
79150;BME280;68563;45.644;13.782;2024-01-15T08:26:14;99661.03;;;7.74;78.91
79150;BME280;68563;45.644;13.782;2024-01-15T08:28:40;99658.53;;;7.71;78.94
79150;BME280;68563;45.644;13.782;2024-01-15T08:31:05;99672.16;;;7.76;78.50
79150;BME280;68563;45.644;13.782;2024-01-15T08:33:31;99672.13;;;7.78;78.67
79150;BME280;68563;45.644;13.782;2024-01-15T08:35:56;99678.16;;;7.78;78.84
79150;BME280;68563;45.644;13.782;2024-01-15T08:38:21;99655.94;;;7.71;78.75
79150;BME280;68563;45.644;13.782;2024-01-15T08:40:49;99669.59;;;7.76;79.61
79150;BME280;68563;45.644;13.782;2024-01-15T08:43:14;99679.03;;;7.76;79.88
79150;BME280;68563;45.644;13.782;2024-01-15T08:45:40;99662.03;;;7.65;80.29
79150;BME280;68563;45.644;13.782;2024-01-15T08:48:05;99668.03;;;7.66;80.81
79150;BME280;68563;45.644;13.782;2024-01-15T08:50:32;99664.53;;;7.70;80.58
79150;BME280;68563;45.644;13.782;2024-01-15T08:52:58;99661.97;;;7.69;80.47
79150;BME280;68563;45.644;13.782;2024-01-15T08:55:23;99655.97;;;7.68;80.04
79150;BME280;68563;45.644;13.782;2024-01-15T08:57:49;99667.09;;;7.72;79.86
79150;BME280;68563;45.644;13.782;2024-01-15T09:00:15;99664.50;;;7.72;79.84
79150;BME280;68563;45.644;13.782;2024-01-15T09:02:41;99672.19;;;7.75;79.74
79150;BME280;68563;45.644;13.782;2024-01-15T09:05:07;99680.81;;;7.72;80.23
79150;BME280;68563;45.644;13.782;2024-01-15T09:07:33;99681.66;;;7.74;80.25
79150;BME280;68563;45.644;13.782;2024-01-15T09:09:58;99691.94;;;7.74;80.26
79150;BME280;68563;45.644;13.782;2024-01-15T09:12:25;99685.09;;;7.73;80.42
79150;BME280;68563;45.644;13.782;2024-01-15T09:14:51;99695.41;;;7.75;80.63
79150;BME280;68563;45.644;13.782;2024-01-15T09:17:17;99691.09;;;7.75;80.91
79150;BME280;68563;45.644;13.782;2024-01-15T09:19:43;99690.28;;;7.72;80.74
79150;BME280;68563;45.644;13.782;2024-01-15T09:22:09;99688.53;;;7.72;80.96
79150;BME280;68563;45.644;13.782;2024-01-15T09:24:34;99690.22;;;7.76;80.94
79150;BME280;68563;45.644;13.782;2024-01-15T09:27:00;99683.34;;;7.75;81.05
79150;BME280;68563;45.644;13.782;2024-01-15T09:29:25;99680.78;;;7.75;81.25
79150;BME280;68563;45.644;13.782;2024-01-15T09:31:51;99678.16;;;7.78;81.20
79150;BME280;68563;45.644;13.782;2024-01-15T09:34:17;99666.97;;;7.78;81.33
79150;BME280;68563;45.644;13.782;2024-01-15T09:36:43;99664.41;;;7.78;81.36
79150;BME280;68563;45.644;13.782;2024-01-15T09:39:09;99673.78;;;7.82;81.27
79150;BME280;68563;45.644;13.782;2024-01-15T09:41:36;99672.94;;;7.81;81.49
79150;BME280;68563;45.644;13.782;2024-01-15T09:44:03;99666.91;;;7.82;81.42
79150;BME280;68563;45.644;13.782;2024-01-15T09:46:28;99666.06;;;7.82;81.26
79150;BME280;68563;45.644;13.782;2024-01-15T09:48:54;99657.47;;;7.81;81.38
79150;BME280;68563;45.644;13.782;2024-01-15T09:51:20;99664.28;;;7.86;81.30
79150;BME280;68563;45.644;13.782;2024-01-15T09:53:46;99667.72;;;7.85;81.36
79150;BME280;68563;45.644;13.782;2024-01-15T09:56:12;99658.34;;;7.82;81.30
79150;BME280;68563;45.644;13.782;2024-01-15T09:58:38;99667.72;;;7.85;81.51
79150;BME280;68563;45.644;13.782;2024-01-15T10:01:04;99668.66;;;7.80;81.50
79150;BME280;68563;45.644;13.782;2024-01-15T10:03:29;99676.34;;;7.83;81.55
79150;BME280;68563;45.644;13.782;2024-01-15T10:05:58;99675.47;;;7.85;81.17
79150;BME280;68563;45.644;13.782;2024-01-15T10:08:25;99665.16;;;7.83;81.03
79150;BME280;68563;45.644;13.782;2024-01-15T10:10:50;99664.28;;;7.86;81.25
79150;BME280;68563;45.644;13.782;2024-01-15T10:13:17;99662.56;;;7.85;80.95
79150;BME280;68563;45.644;13.782;2024-01-15T10:15:45;99656.50;;;7.87;80.93
79150;BME280;68563;45.644;13.782;2024-01-15T10:18:12;99647.91;;;7.87;80.83
79150;BME280;68563;45.644;13.782;2024-01-15T10:20:37;99651.34;;;7.87;80.72
79150;BME280;68563;45.644;13.782;2024-01-15T10:23:03;99635.09;;;7.83;80.75
79150;BME280;68563;45.644;13.782;2024-01-15T10:25:29;99637.59;;;7.87;80.70
79150;BME280;68563;45.644;13.782;2024-01-15T10:28:03;99631.56;;;7.88;80.39
79150;BME280;68563;45.644;13.782;2024-01-15T10:30:29;99616.09;;;7.88;80.51
79150;BME280;68563;45.644;13.782;2024-01-15T10:32:59;99619.56;;;7.87;80.37
79150;BME280;68563;45.644;13.782;2024-01-15T10:35:27;99601.50;;;7.88;80.00
79150;BME280;68563;45.644;13.782;2024-01-15T10:37:53;99588.69;;;7.83;79.77
79150;BME280;68563;45.644;13.782;2024-01-15T10:40:19;99592.84;;;7.91;79.60
79150;BME280;68563;45.644;13.782;2024-01-15T10:42:44;99576.56;;;7.89;79.56
79150;BME280;68563;45.644;13.782;2024-01-15T10:45:12;99586.78;;;7.93;79.18
79150;BME280;68563;45.644;13.782;2024-01-15T10:47:37;99584.19;;;7.95;79.11
79150;BME280;68563;45.644;13.782;2024-01-15T10:50:04;99576.44;;;7.95;78.97
79150;BME280;68563;45.644;13.782;2024-01-15T10:52:32;99581.59;;;7.95;78.96
79150;BME280;68563;45.644;13.782;2024-01-15T10:54:58;99578.22;;;7.93;79.01
79150;BME280;68563;45.644;13.782;2024-01-15T10:57:26;99585.09;;;7.92;78.95
79150;BME280;68563;45.644;13.782;2024-01-15T10:59:52;99588.50;;;7.94;78.72
79150;BME280;68563;45.644;13.782;2024-01-15T11:02:17;99585.91;;;7.94;78.68
79150;BME280;68563;45.644;13.782;2024-01-15T11:04:43;99578.19;;;7.94;78.67
79150;BME280;68563;45.644;13.782;2024-01-15T11:07:10;99570.53;;;7.90;78.55
79150;BME280;68563;45.644;13.782;2024-01-15T11:09:37;99576.41;;;7.96;78.25
79150;BME280;68563;45.644;13.782;2024-01-15T11:12:12;99579.78;;;8.00;78.48
79150;BME280;68563;45.644;13.782;2024-01-15T11:14:40;99582.44;;;7.97;78.54
79150;BME280;68563;45.644;13.782;2024-01-15T11:17:06;99588.53;;;7.93;78.54
79150;BME280;68563;45.644;13.782;2024-01-15T11:22:06;99578.16;;;7.96;78.32
79150;BME280;68563;45.644;13.782;2024-01-15T11:24:38;99581.69;;;7.92;78.34
79150;BME280;68563;45.644;13.782;2024-01-15T11:27:04;99573.81;;;7.98;77.82
79150;BME280;68563;45.644;13.782;2024-01-15T11:29:32;99576.41;;;7.96;77.65
79150;BME280;68563;45.644;13.782;2024-01-15T11:34:56;99568.00;;;7.88;77.38
79150;BME280;68563;45.644;13.782;2024-01-15T11:38:12;99573.94;;;7.90;77.09
79150;BME280;68563;45.644;13.782;2024-01-15T11:40:13;99567.97;;;7.90;76.88
79150;BME280;68563;45.644;13.782;2024-01-15T11:42:39;99560.22;;;7.90;76.91
79150;BME280;68563;45.644;13.782;2024-01-15T11:45:05;99553.41;;;7.87;76.91
79150;BME280;68563;45.644;13.782;2024-01-15T11:50:45;99552.44;;;7.93;76.63
79150;BME280;68563;45.644;13.782;2024-01-15T11:53:16;99544.66;;;7.94;76.34
79150;BME280;68563;45.644;13.782;2024-01-15T11:55:44;99539.56;;;7.93;76.08
79150;BME280;68563;45.644;13.782;2024-01-15T11:58:11;99525.75;;;7.94;75.52
79150;BME280;68563;45.644;13.782;2024-01-15T12:00:43;99524.06;;;7.94;75.30
79150;BME280;68563;45.644;13.782;2024-01-15T12:03:09;99523.22;;;7.92;72.88
79150;BME280;68563;45.644;13.782;2024-01-15T12:05:37;99522.34;;;7.93;72.34
79150;BME280;68563;45.644;13.782;2024-01-15T12:08:03;99506.88;;;7.93;71.21
79150;BME280;68563;45.644;13.782;2024-01-15T12:10:29;99516.34;;;7.93;70.55
79150;BME280;68563;45.644;13.782;2024-01-15T12:13:05;99506.84;;;7.95;70.06
79150;BME280;68563;45.644;13.782;2024-01-15T12:15:31;99506.78;;;7.96;70.07
79150;BME280;68563;45.644;13.782;2024-01-15T12:17:59;99513.66;;;7.97;68.54
79150;BME280;68563;45.644;13.782;2024-01-15T12:20:28;99507.66;;;7.97;68.37
79150;BME280;68563;45.644;13.782;2024-01-15T12:22:53;99495.59;;;7.99;68.08
79150;BME280;68563;45.644;13.782;2024-01-15T12:25:21;99498.19;;;7.99;68.33
79150;BME280;68563;45.644;13.782;2024-01-15T12:27:47;99497.28;;;8.00;68.10
79150;BME280;68563;45.644;13.782;2024-01-15T12:30:15;99493.03;;;7.99;68.31
79150;BME280;68563;45.644;13.782;2024-01-15T12:32:41;99487.81;;;8.01;68.86
79150;BME280;68563;45.644;13.782;2024-01-15T12:35:07;99485.19;;;8.02;69.07
79150;BME280;68563;45.644;13.782;2024-01-15T12:37:35;99477.47;;;8.02;68.85
79150;BME280;68563;45.644;13.782;2024-01-15T12:40:01;99469.72;;;8.02;68.15
79150;BME280;68563;45.644;13.782;2024-01-15T12:42:28;99480.09;;;8.01;67.42
79150;BME280;68563;45.644;13.782;2024-01-15T12:44:56;99484.38;;;8.02;66.96
79150;BME280;68563;45.644;13.782;2024-01-15T12:47:21;99470.69;;;7.98;66.85
79150;BME280;68563;45.644;13.782;2024-01-15T12:49:47;99475.84;;;7.96;66.80
79150;BME280;68563;45.644;13.782;2024-01-15T12:52:19;99480.13;;;7.99;66.98
79150;BME280;68563;45.644;13.782;2024-01-15T12:54:46;99477.50;;;8.01;66.38
79150;BME280;68563;45.644;13.782;2024-01-15T12:57:12;99471.53;;;7.98;66.51
79150;BME280;68563;45.644;13.782;2024-01-15T12:59:38;99468.03;;;8.01;66.99
79150;BME280;68563;45.644;13.782;2024-01-15T13:02:03;99454.25;;;8.02;67.45